METAR Data
IDs: Format: Raw Decoded Include TAF

Data at: 0747 UTC 07 Dec 2022

KS39 070735Z AUTO 00000KT 10SM CLR M06/M07 A3013 RMK AO2
KS39 070715Z AUTO 00000KT 10SM CLR M07/M08 A3013 RMK AO2
KS39 070655Z AUTO 08004KT 10SM CLR M08/M08 A3013 RMK AO2
KS39 070635Z AUTO 00000KT 10SM CLR M07/M08 A3013 RMK AO2
KS39 070615Z AUTO 00000KT 10SM CLR M07/M08 A3012 RMK AO2
KS39 070555Z AUTO 14003KT 10SM CLR M06/M07 A3012 RMK AO2
KS39 070535Z AUTO 00000KT 10SM CLR M07/M08 A3012 RMK AO2
KS39 070515Z AUTO 18003KT 10SM CLR M06/M06 A3011 RMK AO2
KS39 070455Z AUTO 17003KT 10SM CLR M05/M05 A3011 RMK AO2
KS39 070435Z AUTO 00000KT 10SM CLR M06/M07 A3012 RMK AO2
KS39 070415Z AUTO 21003KT 10SM CLR M05/M06 A3011 RMK AO2
KS39 070355Z AUTO 17004KT 10SM CLR M05/M06 A3010 RMK AO2
KS39 070335Z AUTO 00000KT 10SM CLR M04/M06 A3010 RMK AO2
KS39 070315Z AUTO 00000KT 10SM CLR M04/M05 A3009 RMK AO2
KS39 070255Z AUTO 19003KT 10SM CLR M04/M05 A3008 RMK AO2
KS39 070235Z AUTO 00000KT 10SM CLR M05/M06 A3008 RMK AO2
KS39 070215Z AUTO 00000KT 10SM CLR M03/M05 A3008 RMK AO2
KS39 070155Z AUTO 00000KT 10SM FEW043 M04/M06 A3007 RMK AO2
KS39 070135Z AUTO 00000KT 10SM CLR M04/M05 A3007 RMK AO2
KS39 070115Z AUTO 17003KT 10SM CLR M02/M05 A3007 RMK AO2
KS39 070055Z AUTO 00000KT 10SM CLR M03/M05 A3007 RMK AO2
KS39 070035Z AUTO 08003KT 10SM CLR 01/M04 A3007 RMK AO2
KS39 070015Z AUTO 00000KT 10SM CLR 03/M04 A3006 RMK AO2
KS39 062355Z AUTO 00000KT 10SM CLR 03/M03 A3006 RMK AO2
KS39 062335Z AUTO 16004KT 10SM CLR 04/M03 A3006 RMK AO2
KS39 062315Z AUTO 17005KT 10SM CLR 04/M03 A3006 RMK AO2
KS39 062255Z AUTO 00000KT 10SM CLR 04/M03 A3005 RMK AO2
KS39 062235Z AUTO 14004KT 10SM CLR 04/M03 A3005 RMK AO2
KS39 062215Z AUTO VRB06KT 10SM CLR 04/M03 A3005 RMK AO2
KS39 062155Z AUTO 18004KT 10SM CLR 04/M03 A3005 RMK AO2
KS39 062135Z AUTO 19005KT 10SM CLR 04/M03 A3006 RMK AO2
KS39 062115Z AUTO 18006KT 10SM CLR 04/M03 A3006 RMK AO2
KS39 062055Z AUTO 14006KT 10SM CLR 03/M03 A3006 RMK AO2
KS39 062035Z AUTO 15008KT 10SM CLR 03/M03 A3006 RMK AO2
KS39 062015Z AUTO 15008KT 10SM CLR 03/M03 A3006 RMK AO2
KS39 061955Z AUTO 15009KT 10SM CLR 02/M03 A3007 RMK AO2
KS39 061935Z AUTO 16006KT 10SM CLR 02/M03 A3007 RMK AO2
KS39 061915Z AUTO 17007KT 10SM CLR 01/M03 A3007 RMK AO2
KS39 061855Z AUTO 10SM CLR 01/M03 A3008 RMK AO2
KS39 061835Z AUTO 17007KT 10SM CLR 01/M02 A3007 RMK AO2
KS39 061815Z AUTO 17007KT 10SM CLR M00/M02 A3007 RMK AO2
KS39 061755Z AUTO 16006KT 10SM CLR M01/M01 A3007 RMK AO2
KS39 061735Z AUTO 16005KT 10SM CLR M01/M02 A3007 RMK AO2
KS39 061715Z AUTO 00000KT 10SM CLR M02/M03 A3007 RMK AO2
KS39 061655Z AUTO 00000KT 10SM CLR M04/M05 A3007 RMK AO2
KS39 061635Z AUTO 18003KT 10SM CLR M06/M07 A3006 RMK AO2
KS39 061615Z AUTO 19003KT 10SM CLR M07/M08 A3006 RMK AO2
KS39 061555Z AUTO 20004KT 10SM CLR M09/M10 A3005 RMK AO2
KS39 061535Z AUTO 00000KT 10SM CLR M09/M10 A3005 RMK AO2
KS39 061515Z AUTO 00000KT 2SM BR CLR M10/M11 A3005 RMK AO2
KS39 061455Z AUTO 00000KT 10SM CLR M11/M12 A3004 RMK AO2
KS39 061435Z AUTO 00000KT 10SM CLR M10/M11 A3003 RMK AO2
KS39 061415Z AUTO 00000KT 10SM CLR M10/M11 A3003 RMK AO2
KS39 061355Z AUTO 00000KT 10SM CLR M09/M10 A3002 RMK AO2
KS39 061335Z AUTO 00000KT 1/2SM BR SCT001 BKN016 BKN027 M09/M10 A3002 RMK AO2
KS39 061315Z AUTO 00000KT 1/2SM BR BKN001 BKN027 M10/M11 A3002 RMK AO2
KS39 061255Z AUTO 00000KT 2SM BR FEW001 M11/M12 A3002 RMK AO2 VIS 1/2V5
KS39 061235Z AUTO 00000KT 10SM CLR M11/M12 A3001 RMK AO2
KS39 061215Z AUTO 00000KT 10SM CLR M09/M10 A3001 RMK AO2
KS39 061155Z AUTO 00000KT 10SM CLR M09/M10 A3001 RMK AO2
KS39 061135Z AUTO 00000KT 10SM CLR M09/M11 A3001 RMK AO2
KS39 061115Z AUTO 00000KT 10SM SCT040 M07/M08 A3001 RMK AO2
KS39 061055Z AUTO 00000KT 10SM BKN041 M08/M09 A3001 RMK AO2
KS39 061035Z AUTO 00000KT 1 3/4SM BR BKN041 M10/M11 A3001 RMK AO2
KS39 061015Z AUTO 00000KT 9SM CLR M09/M10 A3001 RMK AO2
KS39 060955Z AUTO 00000KT 5SM BR FEW041 M09/M10 A3000 RMK AO2
KS39 060935Z AUTO 00000KT 9SM CLR M07/M08 A3000 RMK AO2
KS39 060915Z AUTO 00000KT 1/2SM FZFG VV005 M08/M08 A3000 RMK AO2
KS39 060855Z AUTO 00000KT 10SM FEW046 M06/M06 A3000 RMK AO2
KS39 060835Z AUTO 00000KT 10SM BKN046 M05/M06 A3000 RMK AO2
KS39 060815Z AUTO 00000KT 10SM SCT046 M04/M05 A3000 RMK AO2
KS39 060755Z AUTO 00000KT 10SM OVC046 M04/M04 A3000 RMK AO2
KS39 060735Z AUTO 00000KT 10SM OVC046 M04/M05 A3000 RMK AO2
KS39 060715Z AUTO 00000KT 10SM OVC047 M04/M05 A2999 RMK AO2
KS39 060655Z AUTO 00000KT 10SM OVC047 M04/M05 A2999 RMK AO2
KS39 060635Z AUTO 00000KT 10SM OVC048 M04/M05 A2999 RMK AO2
KS39 060615Z AUTO 00000KT 10SM OVC049 M05/M05 A2998 RMK AO2
KS39 060555Z AUTO 00000KT 10SM OVC050 M05/M06 A2998 RMK AO2
KS39 060535Z AUTO 00000KT 10SM OVC049 M05/M05 A2998 RMK AO2
KS39 060515Z AUTO 00000KT 10SM OVC049 M05/M06 A2997 RMK AO2
KS39 060455Z AUTO 00000KT 10SM OVC049 M05/M06 A2997 RMK AO2
KS39 060435Z AUTO 00000KT 10SM OVC049 M05/M05 A2997 RMK AO2
KS39 060415Z AUTO 00000KT 10SM OVC050 M05/M05 A2996 RMK AO2
KS39 060355Z AUTO 00000KT 10SM BKN050 M05/M05 A2995 RMK AO2
KS39 060335Z AUTO 00000KT 10SM BKN050 M05/M05 A2995 RMK AO2
KS39 060315Z AUTO 00000KT 10SM SCT049 M04/M05 A2994 RMK AO2
KS39 060255Z AUTO 00000KT 10SM BKN050 M04/M04 A2994 RMK AO2
KS39 060235Z AUTO 00000KT 10SM SCT050 M02/M03 A2993 RMK AO2
KS39 060215Z AUTO 00000KT 10SM BKN050 M02/M03 A2993 RMK AO2
KS39 060155Z AUTO 00000KT 10SM OVC050 M01/M03 A2993 RMK AO2
KS39 060135Z AUTO 00000KT 10SM BKN050 M00/M02 A2993 RMK AO2
KS39 060115Z AUTO 00000KT 10SM OVC050 00/M02 A2992 RMK AO2
KS39 060055Z AUTO 00000KT 10SM OVC050 00/M02 A2992 RMK AO2
KS39 060035Z AUTO 26004KT 10SM OVC050 01/M02 A2992 RMK AO2
KS39 060015Z AUTO 30005KT 10SM SCT040 OVC047 01/M02 A2991 RMK AO2
KS39 052355Z AUTO 00000KT 10SM OVC037 01/M02 A2991 RMK AO2
KS39 052335Z AUTO 31005KT 10SM BKN035 01/M03 A2991 RMK AO2
KS39 052315Z AUTO 10SM CLR 03/M02 A2990 RMK AO2
KS39 052255Z AUTO 10SM CLR 03/M02 A2989 RMK AO2
KS39 052235Z AUTO 10SM CLR 04/M02 A2989 RMK AO2
KS39 052215Z AUTO 02004KT 10SM CLR 04/M02 A2989 RMK AO2
KS39 052155Z AUTO 10SM CLR 05/M02 A2989 RMK AO2
KS39 052135Z AUTO 14006KT 10SM CLR 05/M01 A2989 RMK AO2
KS39 052115Z AUTO VRB05KT 10SM CLR 04/M02 A2989 RMK AO2
KS39 052055Z AUTO 15006KT 10SM CLR 04/M02 A2990 RMK AO2
KS39 052035Z AUTO 15006KT 10SM CLR 04/M02 A2991 RMK AO2
KS39 052015Z AUTO 00000KT 10SM CLR 03/M03 A2991 RMK AO2
KS39 051955Z AUTO 00000KT 10SM CLR 03/M03 A2992 RMK AO2